sensor_id;sensor_type;location;lat;lon;timestamp;temperature;humidity
63960;DHT22;50136;51.374;0.096;2023-11-19T00:00:45;12.00;99.90
63960;DHT22;50136;51.374;0.096;2023-11-19T00:10:56;12.00;99.90
63960;DHT22;50136;51.374;0.096;2023-11-19T00:20:58;11.90;99.90
63960;DHT22;50136;51.374;0.096;2023-11-19T00:31:01;11.80;99.90
63960;DHT22;50136;51.374;0.096;2023-11-19T00:41:03;11.70;99.90
63960;DHT22;50136;51.374;0.096;2023-11-19T00:51:07;11.70;99.90
63960;DHT22;50136;51.374;0.096;2023-11-19T01:01:09;11.60;99.90
63960;DHT22;50136;51.374;0.096;2023-11-19T01:11:21;11.40;99.90
63960;DHT22;50136;51.374;0.096;2023-11-19T01:21:23;11.40;99.90
63960;DHT22;50136;51.374;0.096;2023-11-19T01:31:26;11.40;99.90
63960;DHT22;50136;51.374;0.096;2023-11-19T01:41:28;11.40;99.90
63960;DHT22;50136;51.374;0.096;2023-11-19T01:51:31;11.40;99.90
63960;DHT22;50136;51.374;0.096;2023-11-19T02:01:34;11.40;99.90
63960;DHT22;50136;51.374;0.096;2023-11-19T02:11:39;11.40;99.90
63960;DHT22;50136;51.374;0.096;2023-11-19T02:21:42;11.40;99.90
63960;DHT22;50136;51.374;0.096;2023-11-19T02:31:45;11.30;99.90
63960;DHT22;50136;51.374;0.096;2023-11-19T02:41:47;11.30;99.90
63960;DHT22;50136;51.374;0.096;2023-11-19T02:51:50;11.20;99.90
63960;DHT22;50136;51.374;0.096;2023-11-19T03:01:52;11.10;99.90
63960;DHT22;50136;51.374;0.096;2023-11-19T03:11:56;11.10;99.90
63960;DHT22;50136;51.374;0.096;2023-11-19T03:21:58;11.20;99.90
63960;DHT22;50136;51.374;0.096;2023-11-19T03:32:01;11.20;99.90
63960;DHT22;50136;51.374;0.096;2023-11-19T03:42:04;11.10;99.90
63960;DHT22;50136;51.374;0.096;2023-11-19T03:52:07;11.20;99.90
63960;DHT22;50136;51.374;0.096;2023-11-19T04:02:20;11.20;99.90
63960;DHT22;50136;51.374;0.096;2023-11-19T04:12:24;11.20;99.90
63960;DHT22;50136;51.374;0.096;2023-11-19T04:22:26;11.20;99.90
63960;DHT22;50136;51.374;0.096;2023-11-19T04:32:29;11.20;99.90
63960;DHT22;50136;51.374;0.096;2023-11-19T04:42:31;11.30;99.90
63960;DHT22;50136;51.374;0.096;2023-11-19T04:52:34;11.30;99.90
63960;DHT22;50136;51.374;0.096;2023-11-19T05:02:38;11.30;99.90
63960;DHT22;50136;51.374;0.096;2023-11-19T05:12:42;11.40;99.90
63960;DHT22;50136;51.374;0.096;2023-11-19T05:22:45;11.20;99.90
63960;DHT22;50136;51.374;0.096;2023-11-19T05:32:48;11.30;99.90
63960;DHT22;50136;51.374;0.096;2023-11-19T05:42:50;11.30;99.90
63960;DHT22;50136;51.374;0.096;2023-11-19T05:52:53;11.30;99.90
63960;DHT22;50136;51.374;0.096;2023-11-19T06:02:55;11.40;99.90
63960;DHT22;50136;51.374;0.096;2023-11-19T06:12:59;11.60;99.90
63960;DHT22;50136;51.374;0.096;2023-11-19T06:23:01;11.60;99.90
63960;DHT22;50136;51.374;0.096;2023-11-19T06:33:05;11.50;99.90
63960;DHT22;50136;51.374;0.096;2023-11-19T06:43:07;11.50;99.90
63960;DHT22;50136;51.374;0.096;2023-11-19T06:53:10;11.40;99.90
63960;DHT22;50136;51.374;0.096;2023-11-19T07:03:12;11.30;99.90
63960;DHT22;50136;51.374;0.096;2023-11-19T07:13:16;11.20;99.90
63960;DHT22;50136;51.374;0.096;2023-11-19T07:23:18;11.40;99.90
63960;DHT22;50136;51.374;0.096;2023-11-19T07:33:21;11.40;99.90
63960;DHT22;50136;51.374;0.096;2023-11-19T07:43:24;11.40;99.90
63960;DHT22;50136;51.374;0.096;2023-11-19T07:53:27;11.40;99.90
63960;DHT22;50136;51.374;0.096;2023-11-19T08:03:29;11.50;99.90
63960;DHT22;50136;51.374;0.096;2023-11-19T08:13:33;11.50;99.90
63960;DHT22;50136;51.374;0.096;2023-11-19T08:23:36;11.50;99.90
63960;DHT22;50136;51.374;0.096;2023-11-19T08:33:39;11.70;99.90
63960;DHT22;50136;51.374;0.096;2023-11-19T08:43:41;12.30;99.90
63960;DHT22;50136;51.374;0.096;2023-11-19T08:53:44;13.50;99.90
63960;DHT22;50136;51.374;0.096;2023-11-19T09:03:48;14.30;99.90
63960;DHT22;50136;51.374;0.096;2023-11-19T09:13:51;15.00;99.90
63960;DHT22;50136;51.374;0.096;2023-11-19T09:23:54;14.30;99.90
63960;DHT22;50136;51.374;0.096;2023-11-19T09:33:58;13.70;99.90
63960;DHT22;50136;51.374;0.096;2023-11-19T09:44:00;14.00;99.90
63960;DHT22;50136;51.374;0.096;2023-11-19T09:54:03;15.30;99.90
63960;DHT22;50136;51.374;0.096;2023-11-19T10:04:06;14.90;99.90
63960;DHT22;50136;51.374;0.096;2023-11-19T10:14:10;13.80;99.90
63960;DHT22;50136;51.374;0.096;2023-11-19T10:24:12;15.30;99.90
63960;DHT22;50136;51.374;0.096;2023-11-19T10:34:31;16.60;99.90
63960;DHT22;50136;51.374;0.096;2023-11-19T10:44:33;17.00;99.90
63960;DHT22;50136;51.374;0.096;2023-11-19T10:54:37;16.00;99.90
63960;DHT22;50136;51.374;0.096;2023-11-19T11:04:44;15.20;99.90
63960;DHT22;50136;51.374;0.096;2023-11-19T11:14:51;15.00;99.90
63960;DHT22;50136;51.374;0.096;2023-11-19T11:25:15;15.00;99.90
63960;DHT22;50136;51.374;0.096;2023-11-19T11:35:31;14.80;99.90
63960;DHT22;50136;51.374;0.096;2023-11-19T11:45:37;14.50;99.90
63960;DHT22;50136;51.374;0.096;2023-11-19T11:55:57;14.40;99.90
63960;DHT22;50136;51.374;0.096;2023-11-19T12:06:02;14.30;99.90
63960;DHT22;50136;51.374;0.096;2023-11-19T12:16:12;14.20;99.90
63960;DHT22;50136;51.374;0.096;2023-11-19T12:26:36;14.40;99.90
63960;DHT22;50136;51.374;0.096;2023-11-19T12:36:40;14.40;99.90
63960;DHT22;50136;51.374;0.096;2023-11-19T12:46:43;14.40;99.90
63960;DHT22;50136;51.374;0.096;2023-11-19T12:56:53;14.50;99.90
63960;DHT22;50136;51.374;0.096;2023-11-19T13:06:58;14.50;99.90
63960;DHT22;50136;51.374;0.096;2023-11-19T13:17:08;14.60;99.90
63960;DHT22;50136;51.374;0.096;2023-11-19T13:27:10;14.30;99.90
63960;DHT22;50136;51.374;0.096;2023-11-19T13:37:14;14.30;99.90
63960;DHT22;50136;51.374;0.096;2023-11-19T13:47:16;14.40;99.90
63960;DHT22;50136;51.374;0.096;2023-11-19T13:57:20;14.30;99.90
63960;DHT22;50136;51.374;0.096;2023-11-19T14:07:22;14.30;99.90
63960;DHT22;50136;51.374;0.096;2023-11-19T14:17:26;14.20;99.90
63960;DHT22;50136;51.374;0.096;2023-11-19T14:27:28;14.10;99.90
63960;DHT22;50136;51.374;0.096;2023-11-19T14:37:31;14.10;99.90
63960;DHT22;50136;51.374;0.096;2023-11-19T14:47:33;14.00;99.90
63960;DHT22;50136;51.374;0.096;2023-11-19T14:57:47;14.00;99.90
63960;DHT22;50136;51.374;0.096;2023-11-19T15:08:02;13.90;99.90
63960;DHT22;50136;51.374;0.096;2023-11-19T15:18:12;13.70;99.90
63960;DHT22;50136;51.374;0.096;2023-11-19T15:28:15;13.60;99.90
63960;DHT22;50136;51.374;0.096;2023-11-19T15:38:21;13.60;99.90
63960;DHT22;50136;51.374;0.096;2023-11-19T15:48:23;13.50;99.90
63960;DHT22;50136;51.374;0.096;2023-11-19T15:58:27;13.40;99.90
63960;DHT22;50136;51.374;0.096;2023-11-19T16:08:29;13.30;99.90
63960;DHT22;50136;51.374;0.096;2023-11-19T16:18:32;13.30;99.90
63960;DHT22;50136;51.374;0.096;2023-11-19T16:28:34;13.30;99.90
63960;DHT22;50136;51.374;0.096;2023-11-19T16:38:37;13.30;99.90
63960;DHT22;50136;51.374;0.096;2023-11-19T16:48:39;13.30;99.90
63960;DHT22;50136;51.374;0.096;2023-11-19T16:58:43;13.30;99.90
63960;DHT22;50136;51.374;0.096;2023-11-19T17:08:45;13.20;99.90
63960;DHT22;50136;51.374;0.096;2023-11-19T17:18:50;13.10;99.90
63960;DHT22;50136;51.374;0.096;2023-11-19T17:28:53;12.90;99.90
63960;DHT22;50136;51.374;0.096;2023-11-19T17:38:56;12.60;99.90
63960;DHT22;50136;51.374;0.096;2023-11-19T17:48:58;12.40;99.90
63960;DHT22;50136;51.374;0.096;2023-11-19T17:59:02;12.30;99.90
63960;DHT22;50136;51.374;0.096;2023-11-19T18:09:04;12.20;99.90
63960;DHT22;50136;51.374;0.096;2023-11-19T18:19:07;12.20;99.90
63960;DHT22;50136;51.374;0.096;2023-11-19T18:29:09;12.10;99.90
63960;DHT22;50136;51.374;0.096;2023-11-19T18:39:13;11.90;99.90
63960;DHT22;50136;51.374;0.096;2023-11-19T18:49:15;11.90;99.90
63960;DHT22;50136;51.374;0.096;2023-11-19T18:59:18;11.80;99.90
63960;DHT22;50136;51.374;0.096;2023-11-19T19:09:20;11.90;99.90
63960;DHT22;50136;51.374;0.096;2023-11-19T19:19:24;11.90;99.90
63960;DHT22;50136;51.374;0.096;2023-11-19T19:29:26;11.90;99.90
63960;DHT22;50136;51.374;0.096;2023-11-19T19:39:29;11.90;99.90
63960;DHT22;50136;51.374;0.096;2023-11-19T19:49:31;11.90;99.90
63960;DHT22;50136;51.374;0.096;2023-11-19T19:59:35;11.80;99.90
63960;DHT22;50136;51.374;0.096;2023-11-19T20:09:37;12.10;99.90
63960;DHT22;50136;51.374;0.096;2023-11-19T20:19:40;12.10;99.90
63960;DHT22;50136;51.374;0.096;2023-11-19T20:29:44;11.90;99.90
63960;DHT22;50136;51.374;0.096;2023-11-19T20:39:48;11.90;99.90
63960;DHT22;50136;51.374;0.096;2023-11-19T20:49:50;11.80;99.90
63960;DHT22;50136;51.374;0.096;2023-11-19T21:00:03;11.70;99.90
63960;DHT22;50136;51.374;0.096;2023-11-19T21:10:06;11.60;99.90
63960;DHT22;50136;51.374;0.096;2023-11-19T21:20:10;11.50;99.90
63960;DHT22;50136;51.374;0.096;2023-11-19T21:30:16;11.50;99.90
63960;DHT22;50136;51.374;0.096;2023-11-19T21:40:23;11.40;99.90
63960;DHT22;50136;51.374;0.096;2023-11-19T21:50:27;11.30;99.90
63960;DHT22;50136;51.374;0.096;2023-11-19T22:11:02;11.30;99.90
63960;DHT22;50136;51.374;0.096;2023-11-19T22:21:07;11.30;99.90
63960;DHT22;50136;51.374;0.096;2023-11-19T22:31:09;11.30;99.90
63960;DHT22;50136;51.374;0.096;2023-11-19T22:41:12;11.30;99.90
63960;DHT22;50136;51.374;0.096;2023-11-19T22:51:14;11.20;99.90
63960;DHT22;50136;51.374;0.096;2023-11-19T23:01:18;11.20;99.90
63960;DHT22;50136;51.374;0.096;2023-11-19T23:11:20;11.20;99.90
63960;DHT22;50136;51.374;0.096;2023-11-19T23:21:24;11.20;99.90
63960;DHT22;50136;51.374;0.096;2023-11-19T23:31:26;11.10;99.90
63960;DHT22;50136;51.374;0.096;2023-11-19T23:41:29;11.20;99.90
63960;DHT22;50136;51.374;0.096;2023-11-19T23:51:36;11.10;99.90
